KINS/INS METAR and TAF weather

Enter ICAO airport designator
Station Type Date Time Source
KINS METAR 2021/10/20 06:58 UTC NOAA

KINS 200658Z AUTO 00000KT 10SM CLR 08/M02 A3010 RMK AO2 SLP175 T00841017 $


Station Type Date Time Source
KINS Decoded METAR 2021/10/20 06:58 UTC NOAA

Indian Springs, Indian Springs Auxiliary AFLD Nellis AFB, NV, United States (KINS) 36-35N 115-40W
Oct 20, 2021 - 02:58 AM EDT / 2021.10.20 0658 UTC
Wind: Calm:0
Visibility: 10 mile(s):0
Sky conditions: clear
Temperature: 47.1 F (8.4 C)
Dew Point: 28.9 F (-1.7 C)
Relative Humidity: 48%
Pressure (altimeter): 30.1 in. Hg (1019 hPa)
ob: KINS 200658Z AUTO 00000KT 10SM CLR 08/M02 A3010 RMK AO2 SLP175 T00841017
cycle: 7

Station Type Date Time Source
KINS TAF 2021/10/20 05:51 UTC NOAA

TAF TAF KINS 200452Z 2005/2111 VRB06KT 9999 FEW250 QNH3005INS
BECMG 2018/2019 10012KT 9999 SCT210 QNH3006INS
BECMG 2103/2104 22008KT 9999 FEW250 QNH3013INS TX22/2023Z TN05/2013Z

Example: see airport list